sensor_id;sensor_type;location;lat;lon;timestamp;pressure;altitude;pressure_sealevel;temperature;humidity
18900;BME280;9582;52.018;6.306;2023-07-20T00:02:17;104317.56;;;15.93;100.00
18900;BME280;9582;52.018;6.306;2023-07-20T00:04:43;104325.44;;;15.96;100.00
18900;BME280;9582;52.018;6.306;2023-07-20T00:07:10;104320.13;;;15.98;100.00
18900;BME280;9582;52.018;6.306;2023-07-20T00:09:36;104317.47;;;16.01;100.00
18900;BME280;9582;52.018;6.306;2023-07-20T00:12:05;104321.84;;;16.03;100.00
18900;BME280;9582;52.018;6.306;2023-07-20T00:14:32;104323.63;;;16.03;100.00
18900;BME280;9582;52.018;6.306;2023-07-20T00:16:58;104311.31;;;16.00;100.00
18900;BME280;9582;52.018;6.306;2023-07-20T00:19:26;104311.31;;;16.00;100.00
18900;BME280;9582;52.018;6.306;2023-07-20T00:21:53;104310.47;;;16.00;100.00
18900;BME280;9582;52.018;6.306;2023-07-20T00:24:20;104306.94;;;15.99;100.00
18900;BME280;9582;52.018;6.306;2023-07-20T00:26:47;104304.28;;;15.99;100.00
18900;BME280;9582;52.018;6.306;2023-07-20T00:29:15;104297.25;;;15.98;100.00
18900;BME280;9582;52.018;6.306;2023-07-20T00:31:42;104291.13;;;15.96;100.00
18900;BME280;9582;52.018;6.306;2023-07-20T00:34:08;104293.78;;;15.96;100.00
18900;BME280;9582;52.018;6.306;2023-07-20T00:36:35;104283.25;;;15.93;100.00
18900;BME280;9582;52.018;6.306;2023-07-20T00:39:02;104275.41;;;15.89;100.00
18900;BME280;9582;52.018;6.306;2023-07-20T00:41:28;104261.41;;;15.82;100.00
18900;BME280;9582;52.018;6.306;2023-07-20T00:43:55;104249.16;;;15.77;100.00
18900;BME280;9582;52.018;6.306;2023-07-20T00:46:24;104239.53;;;15.71;100.00
18900;BME280;9582;52.018;6.306;2023-07-20T00:48:51;104235.16;;;15.67;100.00
18900;BME280;9582;52.018;6.306;2023-07-20T00:51:19;104223.81;;;15.62;100.00
18900;BME280;9582;52.018;6.306;2023-07-20T00:53:46;104227.31;;;15.61;100.00
18900;BME280;9582;52.018;6.306;2023-07-20T00:56:14;104215.94;;;15.59;100.00
18900;BME280;9582;52.018;6.306;2023-07-20T00:58:41;104221.19;;;15.59;100.00
18900;BME280;9582;52.018;6.306;2023-07-20T01:01:08;104231.75;;;15.61;100.00
18900;BME280;9582;52.018;6.306;2023-07-20T01:03:35;104226.47;;;15.61;100.00
18900;BME280;9582;52.018;6.306;2023-07-20T01:06:10;104239.59;;;15.64;100.00
18900;BME280;9582;52.018;6.306;2023-07-20T01:08:44;104251.03;;;15.64;100.00
18900;BME280;9582;52.018;6.306;2023-07-20T01:11:16;104259.00;;;15.63;100.00
18900;BME280;9582;52.018;6.306;2023-07-20T01:13:43;104268.66;;;15.62;100.00
18900;BME280;9582;52.018;6.306;2023-07-20T01:16:11;104289.88;;;15.54;100.00
18900;BME280;9582;52.018;6.306;2023-07-20T01:18:38;104313.56;;;15.56;100.00
18900;BME280;9582;52.018;6.306;2023-07-20T01:21:08;104308.31;;;15.53;100.00
18900;BME280;9582;52.018;6.306;2023-07-20T01:23:50;104340.00;;;15.51;100.00
18900;BME280;9582;52.018;6.306;2023-07-20T01:26:41;104340.00;;;15.51;100.00
18900;BME280;9582;52.018;6.306;2023-07-20T01:29:22;104332.97;;;15.50;100.00
18900;BME280;9582;52.018;6.306;2023-07-20T01:31:57;104367.31;;;15.49;100.00
18900;BME280;9582;52.018;6.306;2023-07-20T01:34:25;104356.72;;;15.44;100.00
18900;BME280;9582;52.018;6.306;2023-07-20T01:36:53;104363.78;;;15.44;100.00
18900;BME280;9582;52.018;6.306;2023-07-20T01:39:21;104376.09;;;15.43;100.00
18900;BME280;9582;52.018;6.306;2023-07-20T01:41:48;104374.38;;;15.41;100.00
18900;BME280;9582;52.018;6.306;2023-07-20T01:44:14;104373.50;;;15.36;100.00
18900;BME280;9582;52.018;6.306;2023-07-20T01:46:41;104364.75;;;15.34;100.00
18900;BME280;9582;52.018;6.306;2023-07-20T01:49:09;104389.34;;;15.36;100.00
18900;BME280;9582;52.018;6.306;2023-07-20T01:51:35;104406.03;;;15.38;100.00
18900;BME280;9582;52.018;6.306;2023-07-20T01:54:02;104410.44;;;15.36;100.00
18900;BME280;9582;52.018;6.306;2023-07-20T01:56:28;104408.72;;;15.32;100.00
18900;BME280;9582;52.018;6.306;2023-07-20T01:58:55;104410.47;;;15.30;100.00
18900;BME280;9582;52.018;6.306;2023-07-20T02:01:21;104406.13;;;15.26;100.00
18900;BME280;9582;52.018;6.306;2023-07-20T02:03:49;104428.97;;;15.25;100.00
18900;BME280;9582;52.018;6.306;2023-07-20T02:06:17;104426.41;;;15.21;100.00
18900;BME280;9582;52.018;6.306;2023-07-20T02:08:44;104438.69;;;15.19;100.00
18900;BME280;9582;52.018;6.306;2023-07-20T02:11:10;104443.13;;;15.14;100.00
18900;BME280;9582;52.018;6.306;2023-07-20T02:13:36;104447.53;;;15.12;100.00
18900;BME280;9582;52.018;6.306;2023-07-20T02:16:03;104464.25;;;15.08;100.00
18900;BME280;9582;52.018;6.306;2023-07-20T02:18:30;104473.94;;;15.02;100.00
18900;BME280;9582;52.018;6.306;2023-07-20T02:20:57;104480.13;;;15.00;100.00
18900;BME280;9582;52.018;6.306;2023-07-20T02:23:25;104495.94;;;14.98;100.00
18900;BME280;9582;52.018;6.306;2023-07-20T02:25:52;104508.25;;;14.98;100.00
18900;BME280;9582;52.018;6.306;2023-07-20T02:28:18;104513.53;;;14.92;100.00
18900;BME280;9582;52.018;6.306;2023-07-20T02:30:45;104553.06;;;14.93;100.00
18900;BME280;9582;52.018;6.306;2023-07-20T02:33:11;104565.38;;;14.91;100.00
18900;BME280;9582;52.018;6.306;2023-07-20T02:35:38;104582.97;;;14.89;100.00
18900;BME280;9582;52.018;6.306;2023-07-20T02:38:04;104582.09;;;14.86;100.00
18900;BME280;9582;52.018;6.306;2023-07-20T02:40:33;104620.75;;;14.82;100.00
18900;BME280;9582;52.018;6.306;2023-07-20T02:43:00;104635.69;;;14.83;100.00
18900;BME280;9582;52.018;6.306;2023-07-20T02:45:26;104655.88;;;14.83;100.00
18900;BME280;9582;52.018;6.306;2023-07-20T02:47:53;104664.66;;;14.85;100.00
18900;BME280;9582;52.018;6.306;2023-07-20T02:50:19;104680.47;;;14.85;100.00
18900;BME280;9582;52.018;6.306;2023-07-20T02:52:46;104699.81;;;14.87;100.00
18900;BME280;9582;52.018;6.306;2023-07-20T02:55:12;104701.56;;;14.88;100.00
18900;BME280;9582;52.018;6.306;2023-07-20T02:57:40;104707.72;;;14.90;100.00
18900;BME280;9582;52.018;6.306;2023-07-20T03:00:07;104716.47;;;14.90;100.00
18900;BME280;9582;52.018;6.306;2023-07-20T03:02:34;104720.00;;;14.89;100.00
18900;BME280;9582;52.018;6.306;2023-07-20T03:05:01;104716.47;;;14.87;100.00
18900;BME280;9582;52.018;6.306;2023-07-20T03:07:31;104716.50;;;14.86;100.00
18900;BME280;9582;52.018;6.306;2023-07-20T03:09:57;104713.84;;;14.83;100.00
18900;BME280;9582;52.018;6.306;2023-07-20T03:12:24;104702.44;;;14.79;100.00
18900;BME280;9582;52.018;6.306;2023-07-20T03:14:51;104697.16;;;14.73;100.00
18900;BME280;9582;52.018;6.306;2023-07-20T03:17:19;104694.56;;;14.67;100.00
18900;BME280;9582;52.018;6.306;2023-07-20T03:19:46;104686.63;;;14.60;100.00
18900;BME280;9582;52.018;6.306;2023-07-20T03:22:13;104697.16;;;14.54;100.00
18900;BME280;9582;52.018;6.306;2023-07-20T03:24:39;104689.28;;;14.49;100.00
18900;BME280;9582;52.018;6.306;2023-07-20T03:27:06;104681.38;;;14.44;100.00
18900;BME280;9582;52.018;6.306;2023-07-20T03:29:33;104681.38;;;14.41;100.00
18900;BME280;9582;52.018;6.306;2023-07-20T03:32:01;104675.25;;;14.36;100.00
18900;BME280;9582;52.018;6.306;2023-07-20T03:34:28;104683.13;;;14.35;100.00
18900;BME280;9582;52.018;6.306;2023-07-20T03:36:54;104670.81;;;14.28;100.00
18900;BME280;9582;52.018;6.306;2023-07-20T03:39:22;104663.78;;;14.22;100.00
18900;BME280;9582;52.018;6.306;2023-07-20T03:41:48;104654.09;;;14.15;100.00
18900;BME280;9582;52.018;6.306;2023-07-20T03:44:15;104642.69;;;14.12;100.00
18900;BME280;9582;52.018;6.306;2023-07-20T03:46:42;104640.06;;;14.10;100.00
18900;BME280;9582;52.018;6.306;2023-07-20T03:49:10;104641.84;;;14.08;100.00
18900;BME280;9582;52.018;6.306;2023-07-20T03:51:37;104640.94;;;14.08;100.00
18900;BME280;9582;52.018;6.306;2023-07-20T03:54:03;104626.91;;;14.04;100.00
18900;BME280;9582;52.018;6.306;2023-07-20T03:56:30;104635.69;;;14.05;100.00
18900;BME280;9582;52.018;6.306;2023-07-20T03:58:59;104654.09;;;14.03;100.00
18900;BME280;9582;52.018;6.306;2023-07-20T04:01:26;104667.25;;;14.02;100.00
18900;BME280;9582;52.018;6.306;2023-07-20T04:03:52;104667.25;;;13.99;100.00
18900;BME280;9582;52.018;6.306;2023-07-20T04:06:20;104666.38;;;13.97;100.00
18900;BME280;9582;52.018;6.306;2023-07-20T04:08:46;104664.59;;;13.96;100.00
18900;BME280;9582;52.018;6.306;2023-07-20T04:11:13;104662.84;;;13.96;100.00
18900;BME280;9582;52.018;6.306;2023-07-20T04:13:40;104664.63;;;13.94;100.00
18900;BME280;9582;52.018;6.306;2023-07-20T04:16:07;104663.72;;;13.94;100.00
18900;BME280;9582;52.018;6.306;2023-07-20T04:18:33;104673.38;;;13.96;100.00
18900;BME280;9582;52.018;6.306;2023-07-20T04:21:00;104676.00;;;13.98;100.00
18900;BME280;9582;52.018;6.306;2023-07-20T04:23:28;104668.13;;;13.99;100.00
18900;BME280;9582;52.018;6.306;2023-07-20T04:25:54;104680.41;;;14.03;100.00
18900;BME280;9582;52.018;6.306;2023-07-20T04:28:21;104676.03;;;14.04;100.00
18900;BME280;9582;52.018;6.306;2023-07-20T04:30:49;104681.28;;;14.04;100.00
18900;BME280;9582;52.018;6.306;2023-07-20T04:33:15;104676.91;;;14.03;100.00
18900;BME280;9582;52.018;6.306;2023-07-20T04:35:48;104674.25;;;14.06;100.00
18900;BME280;9582;52.018;6.306;2023-07-20T04:38:18;104690.94;;;14.05;100.00
18900;BME280;9582;52.018;6.306;2023-07-20T04:40:50;104690.06;;;14.04;100.00
18900;BME280;9582;52.018;6.306;2023-07-20T04:43:17;104691.81;;;14.07;100.00
18900;BME280;9582;52.018;6.306;2023-07-20T04:45:44;104696.22;;;14.11;100.00
18900;BME280;9582;52.018;6.306;2023-07-20T04:48:12;104706.75;;;14.15;100.00
18900;BME280;9582;52.018;6.306;2023-07-20T04:50:45;104706.78;;;14.18;100.00
18900;BME280;9582;52.018;6.306;2023-07-20T04:53:12;104711.16;;;14.19;100.00
18900;BME280;9582;52.018;6.306;2023-07-20T04:55:39;104726.09;;;14.22;100.00
18900;BME280;9582;52.018;6.306;2023-07-20T04:58:08;104723.47;;;14.25;100.00
18900;BME280;9582;52.018;6.306;2023-07-20T05:00:38;104719.94;;;14.29;100.00
18900;BME280;9582;52.018;6.306;2023-07-20T05:03:06;104733.16;;;14.35;100.00
18900;BME280;9582;52.018;6.306;2023-07-20T05:05:32;104734.94;;;14.39;100.00
18900;BME280;9582;52.018;6.306;2023-07-20T05:07:59;104749.84;;;14.40;100.00
18900;BME280;9582;52.018;6.306;2023-07-20T05:10:26;104763.03;;;14.43;100.00
18900;BME280;9582;52.018;6.306;2023-07-20T05:12:52;104778.84;;;14.48;100.00
18900;BME280;9582;52.018;6.306;2023-07-20T05:15:20;104792.88;;;14.50;100.00
18900;BME280;9582;52.018;6.306;2023-07-20T05:17:46;104790.25;;;14.54;100.00
18900;BME280;9582;52.018;6.306;2023-07-20T05:20:14;104795.53;;;14.57;100.00
18900;BME280;9582;52.018;6.306;2023-07-20T05:22:40;104797.31;;;14.64;100.00
18900;BME280;9582;52.018;6.306;2023-07-20T05:25:08;104811.38;;;14.69;100.00
18900;BME280;9582;52.018;6.306;2023-07-20T05:27:36;104803.47;;;14.72;100.00
18900;BME280;9582;52.018;6.306;2023-07-20T05:30:04;104798.19;;;14.77;100.00
18900;BME280;9582;52.018;6.306;2023-07-20T05:32:32;104803.47;;;14.80;100.00
18900;BME280;9582;52.018;6.306;2023-07-20T05:34:59;104787.66;;;14.84;100.00
18900;BME280;9582;52.018;6.306;2023-07-20T05:37:26;104803.47;;;14.92;100.00
18900;BME280;9582;52.018;6.306;2023-07-20T05:39:52;104813.16;;;14.97;100.00
18900;BME280;9582;52.018;6.306;2023-07-20T05:42:19;104839.50;;;15.28;100.00
18900;BME280;9582;52.018;6.306;2023-07-20T05:44:45;104879.94;;;15.80;100.00
18900;BME280;9582;52.018;6.306;2023-07-20T05:47:12;104923.75;;;16.35;100.00
18900;BME280;9582;52.018;6.306;2023-07-20T05:49:40;104945.41;;;17.13;100.00
18900;BME280;9582;52.018;6.306;2023-07-20T05:52:07;104943.28;;;17.59;100.00
18900;BME280;9582;52.018;6.306;2023-07-20T05:54:33;104884.22;;;17.51;100.00
18900;BME280;9582;52.018;6.306;2023-07-20T05:57:00;104828.56;;;17.61;100.00
18900;BME280;9582;52.018;6.306;2023-07-20T05:59:27;104795.78;;;17.73;100.00
18900;BME280;9582;52.018;6.306;2023-07-20T06:01:54;104808.59;;;18.08;100.00
18900;BME280;9582;52.018;6.306;2023-07-20T06:04:21;104776.41;;;18.36;100.00
18900;BME280;9582;52.018;6.306;2023-07-20T06:06:49;104625.69;;;18.14;100.00
18900;BME280;9582;52.018;6.306;2023-07-20T06:09:21;104536.59;;;18.08;100.00
18900;BME280;9582;52.018;6.306;2023-07-20T06:11:47;104440.41;;;18.05;100.00
18900;BME280;9582;52.018;6.306;2023-07-20T06:14:14;104390.84;;;18.11;100.00
18900;BME280;9582;52.018;6.306;2023-07-20T06:16:41;104344.28;;;18.42;100.00
18900;BME280;9582;52.018;6.306;2023-07-20T06:19:08;104247.25;;;18.35;100.00
18900;BME280;9582;52.018;6.306;2023-07-20T06:21:36;104210.78;;;18.48;100.00
18900;BME280;9582;52.018;6.306;2023-07-20T06:24:04;104171.78;;;18.52;100.00
18900;BME280;9582;52.018;6.306;2023-07-20T06:26:31;104158.50;;;18.53;100.00
18900;BME280;9582;52.018;6.306;2023-07-20T06:29:03;104147.09;;;18.51;100.00
18900;BME280;9582;52.018;6.306;2023-07-20T06:31:29;104108.94;;;18.21;100.00
18900;BME280;9582;52.018;6.306;2023-07-20T06:33:56;104113.41;;;18.19;100.00
18900;BME280;9582;52.018;6.306;2023-07-20T06:36:22;104115.91;;;18.24;100.00
18900;BME280;9582;52.018;6.306;2023-07-20T06:38:51;104148.88;;;18.51;100.00
18900;BME280;9582;52.018;6.306;2023-07-20T06:41:19;104191.00;;;18.95;100.00
18900;BME280;9582;52.018;6.306;2023-07-20T06:43:46;104197.56;;;18.80;100.00
18900;BME280;9582;52.018;6.306;2023-07-20T06:46:13;104216.66;;;18.94;100.00
18900;BME280;9582;52.018;6.306;2023-07-20T06:48:40;104215.09;;;18.86;100.00
18900;BME280;9582;52.018;6.306;2023-07-20T06:51:06;104220.88;;;18.68;100.00
18900;BME280;9582;52.018;6.306;2023-07-20T06:53:33;104243.41;;;18.85;100.00
18900;BME280;9582;52.018;6.306;2023-07-20T06:55:59;104250.97;;;19.00;100.00
18900;BME280;9582;52.018;6.306;2023-07-20T06:58:27;104246.84;;;18.89;100.00
18900;BME280;9582;52.018;6.306;2023-07-20T07:00:53;104258.94;;;19.00;100.00
18900;BME280;9582;52.018;6.306;2023-07-20T07:03:20;104258.66;;;19.11;100.00
18900;BME280;9582;52.018;6.306;2023-07-20T07:05:47;104210.66;;;18.88;100.00
18900;BME280;9582;52.018;6.306;2023-07-20T07:08:13;104208.97;;;18.84;100.00
18900;BME280;9582;52.018;6.306;2023-07-20T07:10:40;104202.19;;;18.74;100.00
18900;BME280;9582;52.018;6.306;2023-07-20T07:13:06;104227.31;;;18.93;100.00
18900;BME280;9582;52.018;6.306;2023-07-20T07:15:34;104261.81;;;19.25;100.00
18900;BME280;9582;52.018;6.306;2023-07-20T07:18:01;104277.06;;;19.51;100.00
18900;BME280;9582;52.018;6.306;2023-07-20T07:20:28;104287.50;;;19.58;100.00
18900;BME280;9582;52.018;6.306;2023-07-20T07:22:55;104318.22;;;19.98;100.00
18900;BME280;9582;52.018;6.306;2023-07-20T07:25:22;104294.50;;;19.92;100.00
18900;BME280;9582;52.018;6.306;2023-07-20T07:27:48;104282.81;;;19.97;100.00
18900;BME280;9582;52.018;6.306;2023-07-20T07:30:15;104332.19;;;20.35;100.00
18900;BME280;9582;52.018;6.306;2023-07-20T07:32:43;104346.34;;;20.65;100.00
18900;BME280;9582;52.018;6.306;2023-07-20T07:35:10;104225.63;;;19.84;100.00
18900;BME280;9582;52.018;6.306;2023-07-20T07:37:37;104160.69;;;19.36;100.00
18900;BME280;9582;52.018;6.306;2023-07-20T07:40:04;104189.97;;;19.64;100.00
18900;BME280;9582;52.018;6.306;2023-07-20T07:42:32;104189.44;;;19.52;100.00
18900;BME280;9582;52.018;6.306;2023-07-20T07:44:58;104168.44;;;19.11;100.00
18900;BME280;9582;52.018;6.306;2023-07-20T07:47:25;104185.56;;;19.32;100.00
18900;BME280;9582;52.018;6.306;2023-07-20T07:49:52;104158.50;;;19.19;100.00
18900;BME280;9582;52.018;6.306;2023-07-20T07:52:19;104160.63;;;19.37;100.00
18900;BME280;9582;52.018;6.306;2023-07-20T07:54:46;104179.28;;;19.67;100.00
18900;BME280;9582;52.018;6.306;2023-07-20T07:57:13;104152.56;;;19.71;100.00
18900;BME280;9582;52.018;6.306;2023-07-20T07:59:39;104078.63;;;19.28;100.00
18900;BME280;9582;52.018;6.306;2023-07-20T08:02:06;104066.63;;;19.46;100.00
18900;BME280;9582;52.018;6.306;2023-07-20T08:04:32;104091.13;;;19.82;100.00
18900;BME280;9582;52.018;6.306;2023-07-20T08:07:03;104041.31;;;19.62;100.00
18900;BME280;9582;52.018;6.306;2023-07-20T08:09:29;104039.16;;;19.75;100.00
18900;BME280;9582;52.018;6.306;2023-07-20T08:11:56;104038.56;;;19.65;100.00
18900;BME280;9582;52.018;6.306;2023-07-20T08:14:22;104074.94;;;19.63;100.00
18900;BME280;9582;52.018;6.306;2023-07-20T08:16:49;104072.22;;;19.92;100.00
18900;BME280;9582;52.018;6.306;2023-07-20T08:19:15;104048.66;;;19.82;100.00
18900;BME280;9582;52.018;6.306;2023-07-20T08:21:42;104053.56;;;19.94;100.00
18900;BME280;9582;52.018;6.306;2023-07-20T08:24:10;104055.06;;;20.29;100.00
18900;BME280;9582;52.018;6.306;2023-07-20T08:26:36;104043.69;;;20.25;100.00
18900;BME280;9582;52.018;6.306;2023-07-20T08:29:03;104038.69;;;20.41;100.00
18900;BME280;9582;52.018;6.306;2023-07-20T08:31:29;104067.13;;;20.88;100.00
18900;BME280;9582;52.018;6.306;2023-07-20T08:33:55;104085.72;;;21.13;100.00
18900;BME280;9582;52.018;6.306;2023-07-20T08:36:22;104051.59;;;21.24;100.00
18900;BME280;9582;52.018;6.306;2023-07-20T08:38:49;104056.38;;;21.59;100.00
18900;BME280;9582;52.018;6.306;2023-07-20T08:41:18;103991.53;;;21.60;100.00
18900;BME280;9582;52.018;6.306;2023-07-20T08:43:46;103936.84;;;21.52;100.00
18900;BME280;9582;52.018;6.306;2023-07-20T08:46:13;103905.06;;;21.27;100.00
18900;BME280;9582;52.018;6.306;2023-07-20T08:48:41;103894.63;;;21.43;100.00
18900;BME280;9582;52.018;6.306;2023-07-20T08:51:09;103844.00;;;21.01;100.00
18900;BME280;9582;52.018;6.306;2023-07-20T08:53:36;103820.81;;;20.83;100.00
18900;BME280;9582;52.018;6.306;2023-07-20T08:56:04;103802.69;;;20.49;100.00
18900;BME280;9582;52.018;6.306;2023-07-20T08:58:34;103782.31;;;20.48;100.00
18900;BME280;9582;52.018;6.306;2023-07-20T09:01:00;103778.06;;;20.65;100.00
18900;BME280;9582;52.018;6.306;2023-07-20T09:03:27;103838.97;;;21.16;100.00
18900;BME280;9582;52.018;6.306;2023-07-20T09:05:54;103835.53;;;21.55;100.00
18900;BME280;9582;52.018;6.306;2023-07-20T09:08:20;103815.53;;;21.65;100.00
18900;BME280;9582;52.018;6.306;2023-07-20T09:10:47;103792.25;;;21.70;100.00
18900;BME280;9582;52.018;6.306;2023-07-20T09:13:14;103781.41;;;21.54;100.00
18900;BME280;9582;52.018;6.306;2023-07-20T09:15:45;103777.41;;;21.44;100.00
18900;BME280;9582;52.018;6.306;2023-07-20T09:18:12;103776.03;;;21.36;100.00
18900;BME280;9582;52.018;6.306;2023-07-20T09:20:49;103811.59;;;21.73;100.00
18900;BME280;9582;52.018;6.306;2023-07-20T09:23:15;103791.03;;;22.16;100.00
18900;BME280;9582;52.018;6.306;2023-07-20T09:25:42;103749.75;;;22.06;100.00
18900;BME280;9582;52.018;6.306;2023-07-20T09:28:08;103682.31;;;21.27;100.00
18900;BME280;9582;52.018;6.306;2023-07-20T09:30:35;103679.16;;;20.98;100.00
18900;BME280;9582;52.018;6.306;2023-07-20T09:33:03;103657.53;;;20.65;100.00
18900;BME280;9582;52.018;6.306;2023-07-20T09:35:29;103640.81;;;20.41;100.00
18900;BME280;9582;52.018;6.306;2023-07-20T09:37:58;103666.22;;;20.48;100.00
18900;BME280;9582;52.018;6.306;2023-07-20T09:40:25;103699.28;;;21.05;100.00
18900;BME280;9582;52.018;6.306;2023-07-20T09:42:53;103675.22;;;21.28;100.00
18900;BME280;9582;52.018;6.306;2023-07-20T09:45:28;103675.47;;;21.61;100.00
18900;BME280;9582;52.018;6.306;2023-07-20T09:48:04;103728.75;;;22.18;100.00
18900;BME280;9582;52.018;6.306;2023-07-20T09:50:31;103705.72;;;22.34;100.00
18900;BME280;9582;52.018;6.306;2023-07-20T09:52:58;103702.81;;;22.39;100.00
18900;BME280;9582;52.018;6.306;2023-07-20T09:55:26;103669.56;;;22.29;100.00
18900;BME280;9582;52.018;6.306;2023-07-20T09:57:53;103621.56;;;22.29;100.00
18900;BME280;9582;52.018;6.306;2023-07-20T10:00:21;103634.09;;;22.27;100.00
18900;BME280;9582;52.018;6.306;2023-07-20T10:02:49;103599.63;;;22.24;100.00
18900;BME280;9582;52.018;6.306;2023-07-20T10:05:19;103581.53;;;21.95;100.00
18900;BME280;9582;52.018;6.306;2023-07-20T10:07:48;103601.22;;;22.09;100.00
18900;BME280;9582;52.018;6.306;2023-07-20T10:10:15;103640.28;;;22.27;100.00
18900;BME280;9582;52.018;6.306;2023-07-20T10:12:44;103641.00;;;22.67;100.00
18900;BME280;9582;52.018;6.306;2023-07-20T10:15:13;103656.28;;;22.97;100.00
18900;BME280;9582;52.018;6.306;2023-07-20T10:17:49;103692.41;;;23.37;100.00
18900;BME280;9582;52.018;6.306;2023-07-20T10:20:20;103653.91;;;23.59;100.00
18900;BME280;9582;52.018;6.306;2023-07-20T10:22:49;103660.22;;;23.73;100.00
18900;BME280;9582;52.018;6.306;2023-07-20T10:25:17;103651.75;;;23.81;100.00
18900;BME280;9582;52.018;6.306;2023-07-20T10:27:45;103660.97;;;23.91;100.00
18900;BME280;9582;52.018;6.306;2023-07-20T10:30:13;103666.06;;;23.80;100.00
18900;BME280;9582;52.018;6.306;2023-07-20T10:32:40;103629.25;;;23.69;100.00
18900;BME280;9582;52.018;6.306;2023-07-20T10:35:13;103637.38;;;23.83;100.00
18900;BME280;9582;52.018;6.306;2023-07-20T10:37:51;103627.44;;;24.01;100.00
18900;BME280;9582;52.018;6.306;2023-07-20T10:40:29;103674.78;;;24.30;100.00
18900;BME280;9582;52.018;6.306;2023-07-20T10:42:58;103645.19;;;24.33;100.00
18900;BME280;9582;52.018;6.306;2023-07-20T10:45:37;103660.28;;;24.50;100.00
18900;BME280;9582;52.018;6.306;2023-07-20T10:48:07;103607.13;;;24.44;100.00
18900;BME280;9582;52.018;6.306;2023-07-20T10:50:39;103548.91;;;24.33;100.00
18900;BME280;9582;52.018;6.306;2023-07-20T10:53:11;103566.97;;;24.30;100.00
18900;BME280;9582;52.018;6.306;2023-07-20T10:55:38;103514.56;;;24.41;100.00
18900;BME280;9582;52.018;6.306;2023-07-20T10:58:09;103262.63;;;24.35;100.00
18900;BME280;9582;52.018;6.306;2023-07-20T11:00:36;103062.72;;;24.38;100.00
18900;BME280;9582;52.018;6.306;2023-07-20T11:03:04;102952.72;;;24.43;100.00
18900;BME280;9582;52.018;6.306;2023-07-20T11:05:35;102887.88;;;24.52;100.00
18900;BME280;9582;52.018;6.306;2023-07-20T11:08:07;102841.28;;;24.67;100.00
18900;BME280;9582;52.018;6.306;2023-07-20T11:10:37;102827.31;;;24.63;100.00
18900;BME280;9582;52.018;6.306;2023-07-20T11:13:17;102804.84;;;24.53;100.00
18900;BME280;9582;52.018;6.306;2023-07-20T11:15:47;102749.41;;;24.06;100.00
18900;BME280;9582;52.018;6.306;2023-07-20T11:18:14;102696.63;;;23.60;100.00
18900;BME280;9582;52.018;6.306;2023-07-20T11:20:41;102673.75;;;23.30;100.00
18900;BME280;9582;52.018;6.306;2023-07-20T11:23:08;102570.59;;;22.91;100.00
18900;BME280;9582;52.018;6.306;2023-07-20T11:25:40;102546.81;;;22.49;100.00
18900;BME280;9582;52.018;6.306;2023-07-20T11:28:07;102613.94;;;22.29;100.00
18900;BME280;9582;52.018;6.306;2023-07-20T11:30:34;102828.25;;;22.81;100.00
18900;BME280;9582;52.018;6.306;2023-07-20T11:33:00;102800.00;;;23.06;100.00
18900;BME280;9582;52.018;6.306;2023-07-20T11:35:27;102760.31;;;23.14;100.00
18900;BME280;9582;52.018;6.306;2023-07-20T11:37:54;102764.06;;;23.24;100.00
18900;BME280;9582;52.018;6.306;2023-07-20T11:40:22;102810.63;;;23.20;100.00
18900;BME280;9582;52.018;6.306;2023-07-20T11:42:50;102785.00;;;23.30;100.00
18900;BME280;9582;52.018;6.306;2023-07-20T11:45:19;102799.75;;;23.62;100.00
18900;BME280;9582;52.018;6.306;2023-07-20T11:47:45;102664.69;;;23.58;100.00
18900;BME280;9582;52.018;6.306;2023-07-20T11:50:12;102610.44;;;23.45;100.00
18900;BME280;9582;52.018;6.306;2023-07-20T11:52:39;102562.47;;;23.31;100.00
18900;BME280;9582;52.018;6.306;2023-07-20T11:55:07;102584.44;;;23.34;100.00
18900;BME280;9582;52.018;6.306;2023-07-20T11:57:34;102622.25;;;23.66;100.00
18900;BME280;9582;52.018;6.306;2023-07-20T12:00:03;102660.94;;;23.73;100.00
18900;BME280;9582;52.018;6.306;2023-07-20T12:02:34;102658.09;;;24.13;100.00
18900;BME280;9582;52.018;6.306;2023-07-20T12:05:02;102645.44;;;24.51;100.00
18900;BME280;9582;52.018;6.306;2023-07-20T12:07:29;102531.44;;;24.61;100.00
18900;BME280;9582;52.018;6.306;2023-07-20T12:10:05;102493.69;;;24.53;100.00
18900;BME280;9582;52.018;6.306;2023-07-20T12:12:32;102469.44;;;24.21;100.00
18900;BME280;9582;52.018;6.306;2023-07-20T12:15:16;102544.81;;;24.26;100.00
18900;BME280;9582;52.018;6.306;2023-07-20T12:17:43;102482.97;;;24.07;100.00
18900;BME280;9582;52.018;6.306;2023-07-20T12:20:11;102509.72;;;23.47;100.00
18900;BME280;9582;52.018;6.306;2023-07-20T12:22:39;102411.69;;;23.36;100.00
18900;BME280;9582;52.018;6.306;2023-07-20T12:25:06;102355.72;;;23.35;100.00
18900;BME280;9582;52.018;6.306;2023-07-20T12:27:32;102359.84;;;22.91;100.00
18900;BME280;9582;52.018;6.306;2023-07-20T12:29:59;102361.97;;;22.86;100.00
18900;BME280;9582;52.018;6.306;2023-07-20T12:32:27;102359.50;;;22.83;100.00
18900;BME280;9582;52.018;6.306;2023-07-20T12:34:53;102355.03;;;22.84;100.00
18900;BME280;9582;52.018;6.306;2023-07-20T12:37:20;102352.97;;;23.24;100.00
18900;BME280;9582;52.018;6.306;2023-07-20T12:39:46;102274.53;;;23.03;100.00
18900;BME280;9582;52.018;6.306;2023-07-20T12:42:13;102278.81;;;22.92;100.00
18900;BME280;9582;52.018;6.306;2023-07-20T12:44:40;102270.47;;;22.73;100.00
18900;BME280;9582;52.018;6.306;2023-07-20T12:47:07;102235.00;;;22.48;100.00
18900;BME280;9582;52.018;6.306;2023-07-20T12:49:35;102244.09;;;22.32;100.00
18900;BME280;9582;52.018;6.306;2023-07-20T12:52:01;102249.66;;;22.17;100.00
18900;BME280;9582;52.018;6.306;2023-07-20T12:54:28;102290.16;;;22.09;100.00